sensor_id;sensor_type;location;lat;lon;timestamp;pressure;altitude;pressure_sealevel;temperature;humidity
13934;BME280;7039;52.168;9.866;2022-08-19T00:00:35;100284.41;;;19.64;100.00
13934;BME280;7039;52.168;9.866;2022-08-19T00:03:02;100283.03;;;19.69;100.00
13934;BME280;7039;52.168;9.866;2022-08-19T00:05:28;100271.19;;;19.73;99.97
13934;BME280;7039;52.168;9.866;2022-08-19T00:07:55;100278.41;;;19.61;100.00
13934;BME280;7039;52.168;9.866;2022-08-19T00:10:22;100272.41;;;19.59;100.00
13934;BME280;7039;52.168;9.866;2022-08-19T00:12:51;100276.31;;;19.46;100.00
13934;BME280;7039;52.168;9.866;2022-08-19T00:15:20;100277.19;;;19.46;100.00
13934;BME280;7039;52.168;9.866;2022-08-19T00:17:47;100276.44;;;19.34;100.00
13934;BME280;7039;52.168;9.866;2022-08-19T00:20:16;100272.00;;;19.25;100.00
13934;BME280;7039;52.168;9.866;2022-08-19T00:22:43;100271.88;;;19.17;100.00
13934;BME280;7039;52.168;9.866;2022-08-19T00:25:10;100264.59;;;19.09;100.00
13934;BME280;7039;52.168;9.866;2022-08-19T00:27:38;100265.00;;;19.05;100.00
13934;BME280;7039;52.168;9.866;2022-08-19T00:30:07;100267.53;;;19.06;100.00
13934;BME280;7039;52.168;9.866;2022-08-19T00:32:35;100259.44;;;18.98;100.00
13934;BME280;7039;52.168;9.866;2022-08-19T00:35:03;100255.13;;;18.97;100.00
13934;BME280;7039;52.168;9.866;2022-08-19T00:37:30;100265.56;;;18.98;100.00
13934;BME280;7039;52.168;9.866;2022-08-19T00:39:58;100260.84;;;19.02;100.00
13934;BME280;7039;52.168;9.866;2022-08-19T00:42:24;100256.53;;;19.01;100.00
13934;BME280;7039;52.168;9.866;2022-08-19T00:44:53;100257.38;;;19.02;100.00
13934;BME280;7039;52.168;9.866;2022-08-19T00:47:21;100248.84;;;18.98;100.00
13934;BME280;7039;52.168;9.866;2022-08-19T00:49:49;100254.13;;;18.88;100.00
13934;BME280;7039;52.168;9.866;2022-08-19T00:52:20;100246.06;;;18.90;100.00
13934;BME280;7039;52.168;9.866;2022-08-19T00:54:48;100251.06;;;18.83;100.00
13934;BME280;7039;52.168;9.866;2022-08-19T00:57:17;100252.19;;;18.81;100.00
13934;BME280;7039;52.168;9.866;2022-08-19T00:59:48;100252.91;;;18.92;100.00
13934;BME280;7039;52.168;9.866;2022-08-19T01:02:18;100249.66;;;18.89;100.00
13934;BME280;7039;52.168;9.866;2022-08-19T01:04:46;100251.66;;;18.96;99.76
13934;BME280;7039;52.168;9.866;2022-08-19T01:07:13;100251.78;;;18.85;99.89
13934;BME280;7039;52.168;9.866;2022-08-19T01:09:39;100258.66;;;18.76;100.00
13934;BME280;7039;52.168;9.866;2022-08-19T01:12:06;100258.28;;;18.81;100.00
13934;BME280;7039;52.168;9.866;2022-08-19T01:14:37;100259.59;;;18.96;100.00
13934;BME280;7039;52.168;9.866;2022-08-19T01:17:06;100245.97;;;19.01;99.45
13934;BME280;7039;52.168;9.866;2022-08-19T01:19:40;100240.50;;;19.03;98.98
13934;BME280;7039;52.168;9.866;2022-08-19T01:22:11;100240.22;;;18.96;98.82
13934;BME280;7039;52.168;9.866;2022-08-19T01:24:40;100233.56;;;19.02;98.84
13934;BME280;7039;52.168;9.866;2022-08-19T01:27:07;100236.25;;;18.71;100.00
13934;BME280;7039;52.168;9.866;2022-08-19T01:29:37;100240.25;;;18.55;100.00
13934;BME280;7039;52.168;9.866;2022-08-19T01:32:05;100235.38;;;18.51;100.00
13934;BME280;7039;52.168;9.866;2022-08-19T01:34:31;100243.63;;;18.67;100.00
13934;BME280;7039;52.168;9.866;2022-08-19T01:36:59;100245.69;;;18.64;100.00
13934;BME280;7039;52.168;9.866;2022-08-19T01:39:27;100240.16;;;18.67;100.00
13934;BME280;7039;52.168;9.866;2022-08-19T01:41:55;100232.50;;;18.73;99.86
13934;BME280;7039;52.168;9.866;2022-08-19T01:44:21;100219.94;;;18.56;100.00
13934;BME280;7039;52.168;9.866;2022-08-19T01:46:51;100217.56;;;18.53;100.00
13934;BME280;7039;52.168;9.866;2022-08-19T01:49:20;100215.47;;;18.47;100.00
13934;BME280;7039;52.168;9.866;2022-08-19T01:51:47;100216.00;;;18.41;100.00
13934;BME280;7039;52.168;9.866;2022-08-19T01:54:16;100218.81;;;18.49;100.00
13934;BME280;7039;52.168;9.866;2022-08-19T01:56:44;100223.66;;;18.44;100.00
13934;BME280;7039;52.168;9.866;2022-08-19T01:59:14;100224.22;;;18.47;100.00
13934;BME280;7039;52.168;9.866;2022-08-19T02:01:42;100219.22;;;18.44;100.00
13934;BME280;7039;52.168;9.866;2022-08-19T02:04:09;100222.94;;;18.42;100.00
13934;BME280;7039;52.168;9.866;2022-08-19T02:06:36;100226.88;;;18.47;100.00
13934;BME280;7039;52.168;9.866;2022-08-19T02:09:04;100224.22;;;18.47;100.00
13934;BME280;7039;52.168;9.866;2022-08-19T02:11:32;100228.53;;;18.48;100.00
13934;BME280;7039;52.168;9.866;2022-08-19T02:14:01;100223.94;;;18.41;100.00
13934;BME280;7039;52.168;9.866;2022-08-19T02:16:29;100212.53;;;18.40;100.00
13934;BME280;7039;52.168;9.866;2022-08-19T02:18:56;100209.06;;;18.40;100.00
13934;BME280;7039;52.168;9.866;2022-08-19T02:21:23;100198.19;;;18.33;100.00
13934;BME280;7039;52.168;9.866;2022-08-19T02:23:50;100212.94;;;18.35;100.00
13934;BME280;7039;52.168;9.866;2022-08-19T02:26:17;100207.91;;;18.32;100.00
13934;BME280;7039;52.168;9.866;2022-08-19T02:28:45;100207.75;;;18.24;100.00
13934;BME280;7039;52.168;9.866;2022-08-19T02:31:16;100205.84;;;18.36;100.00
13934;BME280;7039;52.168;9.866;2022-08-19T02:33:44;100210.13;;;18.37;100.00
13934;BME280;7039;52.168;9.866;2022-08-19T02:36:13;100202.47;;;18.24;100.00
13934;BME280;7039;52.168;9.866;2022-08-19T02:38:40;100205.22;;;18.23;100.00
13934;BME280;7039;52.168;9.866;2022-08-19T02:41:11;100210.94;;;18.28;100.00
13934;BME280;7039;52.168;9.866;2022-08-19T02:43:38;100215.47;;;18.16;100.00
13934;BME280;7039;52.168;9.866;2022-08-19T02:46:11;100218.91;;;18.38;100.00
13934;BME280;7039;52.168;9.866;2022-08-19T02:48:39;100224.84;;;18.30;100.00
13934;BME280;7039;52.168;9.866;2022-08-19T02:51:07;100226.44;;;18.42;100.00
13934;BME280;7039;52.168;9.866;2022-08-19T02:53:33;100222.78;;;18.33;100.00
13934;BME280;7039;52.168;9.866;2022-08-19T02:56:00;100233.25;;;18.45;100.00
13934;BME280;7039;52.168;9.866;2022-08-19T02:58:26;100233.69;;;18.50;100.00
13934;BME280;7039;52.168;9.866;2022-08-19T03:00:55;100230.50;;;18.46;100.00
13934;BME280;7039;52.168;9.866;2022-08-19T03:03:22;100225.88;;;18.39;100.00
13934;BME280;7039;52.168;9.866;2022-08-19T03:05:48;100229.47;;;18.38;100.00
13934;BME280;7039;52.168;9.866;2022-08-19T03:08:16;100229.81;;;18.54;100.00
13934;BME280;7039;52.168;9.866;2022-08-19T03:10:45;100236.94;;;18.63;100.00
13934;BME280;7039;52.168;9.866;2022-08-19T03:13:13;100235.41;;;18.70;100.00
13934;BME280;7039;52.168;9.866;2022-08-19T03:15:41;100241.69;;;18.69;100.00
13934;BME280;7039;52.168;9.866;2022-08-19T03:18:09;100251.78;;;18.64;100.00
13934;BME280;7039;52.168;9.866;2022-08-19T03:20:40;100244.84;;;18.63;100.00
13934;BME280;7039;52.168;9.866;2022-08-19T03:23:07;100234.81;;;18.57;100.00
13934;BME280;7039;52.168;9.866;2022-08-19T03:25:38;100236.09;;;18.63;100.00
13934;BME280;7039;52.168;9.866;2022-08-19T03:28:05;100225.94;;;18.58;100.00
13934;BME280;7039;52.168;9.866;2022-08-19T03:30:32;100230.00;;;18.62;100.00
13934;BME280;7039;52.168;9.866;2022-08-19T03:32:58;100235.53;;;18.59;100.00
13934;BME280;7039;52.168;9.866;2022-08-19T03:35:25;100230.53;;;18.56;100.00
13934;BME280;7039;52.168;9.866;2022-08-19T03:37:52;100232.84;;;18.49;100.00
13934;BME280;7039;52.168;9.866;2022-08-19T03:40:19;100231.25;;;18.37;100.00
13934;BME280;7039;52.168;9.866;2022-08-19T03:42:47;100228.22;;;18.42;100.00
13934;BME280;7039;52.168;9.866;2022-08-19T03:45:15;100236.81;;;18.34;100.00
13934;BME280;7039;52.168;9.866;2022-08-19T03:47:41;100239.16;;;18.27;100.00
13934;BME280;7039;52.168;9.866;2022-08-19T03:50:08;100233.88;;;18.27;100.00
13934;BME280;7039;52.168;9.866;2022-08-19T03:52:36;100234.16;;;18.24;100.00
13934;BME280;7039;52.168;9.866;2022-08-19T03:55:03;100234.28;;;18.23;100.00
13934;BME280;7039;52.168;9.866;2022-08-19T03:57:30;100233.13;;;18.15;100.00
13934;BME280;7039;52.168;9.866;2022-08-19T03:59:59;100230.63;;;18.14;100.00
13934;BME280;7039;52.168;9.866;2022-08-19T04:02:25;100232.94;;;18.07;100.00
13934;BME280;7039;52.168;9.866;2022-08-19T04:04:53;100237.38;;;18.07;100.00
13934;BME280;7039;52.168;9.866;2022-08-19T04:07:20;100243.75;;;18.04;100.00
13934;BME280;7039;52.168;9.866;2022-08-19T04:09:46;100246.91;;;17.98;100.00
13934;BME280;7039;52.168;9.866;2022-08-19T04:12:13;100248.09;;;17.84;100.00
13934;BME280;7039;52.168;9.866;2022-08-19T04:14:40;100247.69;;;17.89;100.00
13934;BME280;7039;52.168;9.866;2022-08-19T04:17:08;100240.81;;;17.98;100.00
13934;BME280;7039;52.168;9.866;2022-08-19T04:19:36;100234.81;;;17.95;100.00
13934;BME280;7039;52.168;9.866;2022-08-19T04:22:04;100236.63;;;17.95;100.00
13934;BME280;7039;52.168;9.866;2022-08-19T04:24:32;100228.13;;;17.91;100.00
13934;BME280;7039;52.168;9.866;2022-08-19T04:26:59;100236.75;;;17.93;100.00
13934;BME280;7039;52.168;9.866;2022-08-19T04:29:26;100246.22;;;17.96;100.00
13934;BME280;7039;52.168;9.866;2022-08-19T04:31:54;100242.63;;;17.97;100.00
13934;BME280;7039;52.168;9.866;2022-08-19T04:34:26;100247.19;;;17.95;100.00
13934;BME280;7039;52.168;9.866;2022-08-19T04:36:56;100248.53;;;17.89;100.00
13934;BME280;7039;52.168;9.866;2022-08-19T04:39:25;100257.75;;;17.95;100.00
13934;BME280;7039;52.168;9.866;2022-08-19T04:42:12;100252.47;;;17.95;100.00
13934;BME280;7039;52.168;9.866;2022-08-19T04:44:57;100245.13;;;17.99;100.00
13934;BME280;7039;52.168;9.866;2022-08-19T04:47:24;100257.88;;;17.93;100.00
13934;BME280;7039;52.168;9.866;2022-08-19T04:49:52;100257.63;;;17.97;100.00
13934;BME280;7039;52.168;9.866;2022-08-19T04:52:19;100253.13;;;17.87;100.00
13934;BME280;7039;52.168;9.866;2022-08-19T04:54:45;100262.31;;;17.93;100.00
13934;BME280;7039;52.168;9.866;2022-08-19T04:57:13;100262.19;;;17.94;100.00
13934;BME280;7039;52.168;9.866;2022-08-19T04:59:40;100260.00;;;18.00;100.00
13934;BME280;7039;52.168;9.866;2022-08-19T05:02:08;100262.38;;;18.03;100.00
13934;BME280;7039;52.168;9.866;2022-08-19T05:04:35;100262.38;;;18.03;100.00
13934;BME280;7039;52.168;9.866;2022-08-19T05:07:05;100247.94;;;18.07;100.00
13934;BME280;7039;52.168;9.866;2022-08-19T05:09:32;100248.16;;;17.94;100.00
13934;BME280;7039;52.168;9.866;2022-08-19T05:11:59;100239.72;;;18.00;100.00
13934;BME280;7039;52.168;9.866;2022-08-19T05:14:26;100245.75;;;18.12;100.00
13934;BME280;7039;52.168;9.866;2022-08-19T05:16:52;100241.44;;;18.11;100.00
13934;BME280;7039;52.168;9.866;2022-08-19T05:19:19;100242.09;;;18.03;100.00
13934;BME280;7039;52.168;9.866;2022-08-19T05:22:03;100243.66;;;18.06;100.00
13934;BME280;7039;52.168;9.866;2022-08-19T05:24:48;100241.53;;;18.00;100.00
13934;BME280;7039;52.168;9.866;2022-08-19T05:27:14;100251.09;;;18.01;100.00
13934;BME280;7039;52.168;9.866;2022-08-19T05:29:41;100250.97;;;18.02;100.00
13934;BME280;7039;52.168;9.866;2022-08-19T05:32:08;100261.53;;;18.02;100.00
13934;BME280;7039;52.168;9.866;2022-08-19T05:34:36;100262.50;;;18.01;100.00
13934;BME280;7039;52.168;9.866;2022-08-19T05:37:05;100258.09;;;18.11;100.00
13934;BME280;7039;52.168;9.866;2022-08-19T05:39:35;100253.56;;;18.23;100.00
13934;BME280;7039;52.168;9.866;2022-08-19T05:42:05;100243.56;;;18.17;100.00
13934;BME280;7039;52.168;9.866;2022-08-19T05:44:35;100254.03;;;18.28;100.00
13934;BME280;7039;52.168;9.866;2022-08-19T05:47:04;100253.34;;;18.26;100.00
13934;BME280;7039;52.168;9.866;2022-08-19T05:49:32;100263.81;;;18.38;100.00
13934;BME280;7039;52.168;9.866;2022-08-19T05:52:01;100266.84;;;18.33;100.00
13934;BME280;7039;52.168;9.866;2022-08-19T05:54:29;100262.84;;;18.39;100.00
13934;BME280;7039;52.168;9.866;2022-08-19T05:56:56;100266.38;;;18.49;99.72
13934;BME280;7039;52.168;9.866;2022-08-19T05:59:24;100256.97;;;18.66;99.28
13934;BME280;7039;52.168;9.866;2022-08-19T06:01:52;100258.88;;;18.54;98.84
13934;BME280;7039;52.168;9.866;2022-08-19T06:04:20;100253.56;;;18.44;98.89
13934;BME280;7039;52.168;9.866;2022-08-19T06:06:48;100250.84;;;18.34;99.51
13934;BME280;7039;52.168;9.866;2022-08-19T06:09:15;100255.63;;;18.41;98.93
13934;BME280;7039;52.168;9.866;2022-08-19T06:11:44;100247.56;;;18.11;100.00
13934;BME280;7039;52.168;9.866;2022-08-19T06:14:12;100260.13;;;18.19;100.00
13934;BME280;7039;52.168;9.866;2022-08-19T06:16:41;100265.84;;;18.24;99.20
13934;BME280;7039;52.168;9.866;2022-08-19T06:19:12;100276.97;;;18.07;100.00
13934;BME280;7039;52.168;9.866;2022-08-19T06:21:41;100278.13;;;18.14;100.00
13934;BME280;7039;52.168;9.866;2022-08-19T06:24:10;100283.75;;;18.00;100.00
13934;BME280;7039;52.168;9.866;2022-08-19T06:26:39;100283.94;;;18.08;100.00
13934;BME280;7039;52.168;9.866;2022-08-19T06:29:08;100275.25;;;17.96;100.00
13934;BME280;7039;52.168;9.866;2022-08-19T06:31:35;100279.19;;;18.02;100.00
13934;BME280;7039;52.168;9.866;2022-08-19T06:34:05;100285.16;;;18.04;100.00
13934;BME280;7039;52.168;9.866;2022-08-19T06:36:33;100284.00;;;17.97;100.00
13934;BME280;7039;52.168;9.866;2022-08-19T06:39:02;100285.88;;;18.06;100.00
13934;BME280;7039;52.168;9.866;2022-08-19T06:41:30;100277.88;;;18.17;99.92
13934;BME280;7039;52.168;9.866;2022-08-19T06:43:57;100291.22;;;18.15;100.00
13934;BME280;7039;52.168;9.866;2022-08-19T06:46:24;100301.41;;;18.30;99.98
13934;BME280;7039;52.168;9.866;2022-08-19T06:48:51;100294.41;;;18.40;98.86
13934;BME280;7039;52.168;9.866;2022-08-19T06:51:21;100297.75;;;18.42;98.80
13934;BME280;7039;52.168;9.866;2022-08-19T06:53:50;100302.03;;;18.43;98.27
13934;BME280;7039;52.168;9.866;2022-08-19T06:56:24;100311.03;;;18.62;97.50
13934;BME280;7039;52.168;9.866;2022-08-19T06:58:56;100323.91;;;18.55;96.90
13934;BME280;7039;52.168;9.866;2022-08-19T07:01:22;100318.25;;;18.29;97.52
13934;BME280;7039;52.168;9.866;2022-08-19T07:03:49;100325.28;;;18.49;98.13
13934;BME280;7039;52.168;9.866;2022-08-19T07:06:17;100327.34;;;18.46;97.78
13934;BME280;7039;52.168;9.866;2022-08-19T07:08:47;100330.91;;;18.56;96.53
13934;BME280;7039;52.168;9.866;2022-08-19T07:11:16;100327.84;;;18.61;96.53
13934;BME280;7039;52.168;9.866;2022-08-19T07:13:44;100329.16;;;18.45;96.20
13934;BME280;7039;52.168;9.866;2022-08-19T07:16:13;100335.41;;;18.75;95.63
13934;BME280;7039;52.168;9.866;2022-08-19T07:18:40;100344.25;;;18.85;95.58
13934;BME280;7039;52.168;9.866;2022-08-19T07:21:09;100339.41;;;18.90;94.27
13934;BME280;7039;52.168;9.866;2022-08-19T07:23:36;100346.16;;;18.52;94.87
13934;BME280;7039;52.168;9.866;2022-08-19T07:26:08;100347.09;;;18.72;95.00
13934;BME280;7039;52.168;9.866;2022-08-19T07:28:35;100367.09;;;18.96;93.41
13934;BME280;7039;52.168;9.866;2022-08-19T07:31:04;100361.78;;;19.27;92.87
13934;BME280;7039;52.168;9.866;2022-08-19T07:33:31;100364.31;;;19.48;90.51
13934;BME280;7039;52.168;9.866;2022-08-19T07:35:59;100373.44;;;19.74;90.05
13934;BME280;7039;52.168;9.866;2022-08-19T07:38:25;100378.00;;;19.63;89.99
13934;BME280;7039;52.168;9.866;2022-08-19T07:40:52;100381.91;;;19.78;88.39
13934;BME280;7039;52.168;9.866;2022-08-19T07:43:20;100389.28;;;19.65;89.19
13934;BME280;7039;52.168;9.866;2022-08-19T07:45:50;100381.72;;;19.50;89.45
13934;BME280;7039;52.168;9.866;2022-08-19T07:48:17;100383.28;;;19.63;88.99
13934;BME280;7039;52.168;9.866;2022-08-19T07:50:43;100391.28;;;19.92;89.00
13934;BME280;7039;52.168;9.866;2022-08-19T07:53:10;100384.16;;;19.83;87.35
13934;BME280;7039;52.168;9.866;2022-08-19T07:55:38;100385.41;;;20.08;87.15
13934;BME280;7039;52.168;9.866;2022-08-19T07:58:04;100387.78;;;20.11;86.51
13934;BME280;7039;52.168;9.866;2022-08-19T08:00:33;100389.56;;;20.00;86.14
13934;BME280;7039;52.168;9.866;2022-08-19T08:03:00;100396.53;;;19.82;86.60
13934;BME280;7039;52.168;9.866;2022-08-19T08:05:26;100390.00;;;19.86;87.64
13934;BME280;7039;52.168;9.866;2022-08-19T08:08:11;100388.91;;;19.98;85.67
13934;BME280;7039;52.168;9.866;2022-08-19T08:10:55;100384.41;;;19.60;86.80
13934;BME280;7039;52.168;9.866;2022-08-19T08:13:22;100400.59;;;19.86;86.81
13934;BME280;7039;52.168;9.866;2022-08-19T08:15:50;100396.69;;;20.10;85.75
13934;BME280;7039;52.168;9.866;2022-08-19T08:18:16;100393.31;;;20.37;82.83
13934;BME280;7039;52.168;9.866;2022-08-19T08:20:43;100386.09;;;20.19;81.61
13934;BME280;7039;52.168;9.866;2022-08-19T08:23:10;100381.75;;;20.38;82.52
13934;BME280;7039;52.168;9.866;2022-08-19T08:25:50;100386.06;;;20.58;80.65
13934;BME280;7039;52.168;9.866;2022-08-19T08:28:18;100388.13;;;20.64;80.43
13934;BME280;7039;52.168;9.866;2022-08-19T08:30:45;100384.38;;;20.48;80.65
13934;BME280;7039;52.168;9.866;2022-08-19T08:33:17;100396.06;;;20.74;80.65
13934;BME280;7039;52.168;9.866;2022-08-19T08:35:44;100391.72;;;20.73;80.66
13934;BME280;7039;52.168;9.866;2022-08-19T08:38:11;100389.13;;;21.01;78.34
13934;BME280;7039;52.168;9.866;2022-08-19T08:40:42;100394.06;;;21.14;77.77
13934;BME280;7039;52.168;9.866;2022-08-19T08:43:19;100384.78;;;21.00;78.23
13934;BME280;7039;52.168;9.866;2022-08-19T08:45:52;100399.50;;;20.84;78.16
13934;BME280;7039;52.168;9.866;2022-08-19T08:48:29;100400.88;;;21.16;78.09
13934;BME280;7039;52.168;9.866;2022-08-19T08:50:58;100415.09;;;21.25;77.38
13934;BME280;7039;52.168;9.866;2022-08-19T08:53:27;100408.75;;;21.36;77.79
13934;BME280;7039;52.168;9.866;2022-08-19T08:55:55;100403.34;;;21.27;75.18
13934;BME280;7039;52.168;9.866;2022-08-19T08:58:26;100407.81;;;21.27;75.19
13934;BME280;7039;52.168;9.866;2022-08-19T09:00:55;100401.91;;;21.43;73.81
13934;BME280;7039;52.168;9.866;2022-08-19T09:03:26;100410.00;;;21.41;74.17
13934;BME280;7039;52.168;9.866;2022-08-19T09:05:59;100399.41;;;21.32;72.81
13934;BME280;7039;52.168;9.866;2022-08-19T09:08:36;100391.47;;;21.32;74.61
13934;BME280;7039;52.168;9.866;2022-08-19T09:11:08;100394.03;;;21.51;75.08
13934;BME280;7039;52.168;9.866;2022-08-19T09:13:41;100381.00;;;21.02;76.79
13934;BME280;7039;52.168;9.866;2022-08-19T09:16:14;100387.81;;;21.05;74.76
13934;BME280;7039;52.168;9.866;2022-08-19T09:18:45;100381.44;;;20.98;75.66
13934;BME280;7039;52.168;9.866;2022-08-19T09:21:12;100393.13;;;21.05;76.63
13934;BME280;7039;52.168;9.866;2022-08-19T09:23:39;100392.41;;;21.13;74.93
13934;BME280;7039;52.168;9.866;2022-08-19T09:26:07;100393.28;;;21.03;74.96
13934;BME280;7039;52.168;9.866;2022-08-19T09:28:34;100387.44;;;21.00;74.26
13934;BME280;7039;52.168;9.866;2022-08-19T09:31:02;100388.94;;;21.12;73.93
13934;BME280;7039;52.168;9.866;2022-08-19T09:33:29;100388.81;;;21.04;73.28
13934;BME280;7039;52.168;9.866;2022-08-19T09:36:06;100393.03;;;20.97;75.55
13934;BME280;7039;52.168;9.866;2022-08-19T09:38:33;100399.63;;;21.20;75.70
13934;BME280;7039;52.168;9.866;2022-08-19T09:41:04;100395.38;;;21.00;73.49
13934;BME280;7039;52.168;9.866;2022-08-19T09:43:31;100398.34;;;21.24;74.64
13934;BME280;7039;52.168;9.866;2022-08-19T09:45:57;100391.22;;;21.25;74.10
13934;BME280;7039;52.168;9.866;2022-08-19T09:48:25;100397.16;;;21.09;75.18
13934;BME280;7039;52.168;9.866;2022-08-19T09:50:52;100384.69;;;21.19;75.00
13934;BME280;7039;52.168;9.866;2022-08-19T09:53:20;100376.56;;;21.21;74.48
13934;BME280;7039;52.168;9.866;2022-08-19T09:55:47;100379.47;;;21.27;73.45
13934;BME280;7039;52.168;9.866;2022-08-19T09:58:14;100379.84;;;21.15;72.42
13934;BME280;7039;52.168;9.866;2022-08-19T10:00:40;100377.69;;;21.28;72.92
13934;BME280;7039;52.168;9.866;2022-08-19T10:03:07;100370.81;;;21.25;73.43
13934;BME280;7039;52.168;9.866;2022-08-19T10:05:33;100374.47;;;21.24;73.73
13934;BME280;7039;52.168;9.866;2022-08-19T10:08:18;100372.56;;;21.44;72.55
13934;BME280;7039;52.168;9.866;2022-08-19T10:10:48;100371.13;;;21.68;74.17
13934;BME280;7039;52.168;9.866;2022-08-19T10:13:17;100364.88;;;21.87;70.17
13934;BME280;7039;52.168;9.866;2022-08-19T10:15:47;100373.66;;;22.05;68.55
13934;BME280;7039;52.168;9.866;2022-08-19T10:18:16;100372.31;;;22.09;67.75
13934;BME280;7039;52.168;9.866;2022-08-19T10:20:43;100372.50;;;22.26;67.58
13934;BME280;7039;52.168;9.866;2022-08-19T10:23:10;100371.34;;;22.55;67.54
13934;BME280;7039;52.168;9.866;2022-08-19T10:25:38;100365.56;;;22.59;66.79
13934;BME280;7039;52.168;9.866;2022-08-19T10:28:06;100354.63;;;22.36;65.92
13934;BME280;7039;52.168;9.866;2022-08-19T10:30:32;100349.72;;;22.23;67.29
13934;BME280;7039;52.168;9.866;2022-08-19T10:32:59;100350.72;;;22.22;66.70
13934;BME280;7039;52.168;9.866;2022-08-19T10:35:25;100337.63;;;22.29;67.39
13934;BME280;7039;52.168;9.866;2022-08-19T10:37:54;100337.72;;;22.45;65.57
13934;BME280;7039;52.168;9.866;2022-08-19T10:40:24;100336.78;;;22.55;62.85
13934;BME280;7039;52.168;9.866;2022-08-19T10:42:50;100327.97;;;22.54;63.65
13934;BME280;7039;52.168;9.866;2022-08-19T10:45:18;100338.31;;;22.91;64.12
13934;BME280;7039;52.168;9.866;2022-08-19T10:47:47;100325.13;;;22.82;62.14
13934;BME280;7039;52.168;9.866;2022-08-19T10:50:13;100326.06;;;22.64;61.55
13934;BME280;7039;52.168;9.866;2022-08-19T10:53:03;100320.47;;;22.84;61.92
13934;BME280;7039;52.168;9.866;2022-08-19T10:55:30;100313.44;;;23.09;61.20
13934;BME280;7039;52.168;9.866;2022-08-19T10:58:15;100313.09;;;23.04;59.85
13934;BME280;7039;52.168;9.866;2022-08-19T11:00:51;100324.97;;;23.34;62.73
13934;BME280;7039;52.168;9.866;2022-08-19T11:03:19;100318.50;;;23.45;58.23
13934;BME280;7039;52.168;9.866;2022-08-19T11:05:45;100317.84;;;23.43;60.00
13934;BME280;7039;52.168;9.866;2022-08-19T11:08:14;100302.69;;;23.43;58.20
13934;BME280;7039;52.168;9.866;2022-08-19T11:10:41;100317.88;;;23.67;61.86
13934;BME280;7039;52.168;9.866;2022-08-19T11:13:07;100299.22;;;23.67;61.01
13934;BME280;7039;52.168;9.866;2022-08-19T11:15:34;100293.09;;;23.83;59.26
13934;BME280;7039;52.168;9.866;2022-08-19T11:18:02;100295.56;;;23.68;57.21
13934;BME280;7039;52.168;9.866;2022-08-19T11:20:28;100292.06;;;23.68;55.50
13934;BME280;7039;52.168;9.866;2022-08-19T11:22:56;100292.09;;;23.60;55.37
13934;BME280;7039;52.168;9.866;2022-08-19T11:25:23;100291.44;;;23.90;56.84
13934;BME280;7039;52.168;9.866;2022-08-19T11:27:49;100285.44;;;23.96;56.00
13934;BME280;7039;52.168;9.866;2022-08-19T11:30:17;100281.59;;;23.99;55.09
13934;BME280;7039;52.168;9.866;2022-08-19T11:32:43;100291.56;;;24.13;54.81
13934;BME280;7039;52.168;9.866;2022-08-19T11:35:11;100290.84;;;24.36;54.98
13934;BME280;7039;52.168;9.866;2022-08-19T11:37:38;100298.72;;;24.21;54.38
13934;BME280;7039;52.168;9.866;2022-08-19T11:40:06;100289.50;;;24.40;55.23
13934;BME280;7039;52.168;9.866;2022-08-19T11:42:33;100296.31;;;24.43;53.98
13934;BME280;7039;52.168;9.866;2022-08-19T11:45:17;100292.50;;;24.53;52.14
13934;BME280;7039;52.168;9.866;2022-08-19T11:47:44;100288.72;;;24.79;53.54
13934;BME280;7039;52.168;9.866;2022-08-19T11:50:12;100292.31;;;24.94;51.32
13934;BME280;7039;52.168;9.866;2022-08-19T11:52:39;100288.56;;;25.12;51.99
13934;BME280;7039;52.168;9.866;2022-08-19T11:55:07;100272.50;;;25.20;52.82
13934;BME280;7039;52.168;9.866;2022-08-19T11:57:33;100268.47;;;25.16;51.74
13934;BME280;7039;52.168;9.866;2022-08-19T12:00:00;100272.22;;;25.38;52.28
13934;BME280;7039;52.168;9.866;2022-08-19T12:02:28;100269.59;;;25.53;53.11
13934;BME280;7039;52.168;9.866;2022-08-19T12:04:54;100264.50;;;25.43;53.00
13934;BME280;7039;52.168;9.866;2022-08-19T12:07:22;100280.53;;;25.81;53.07
13934;BME280;7039;52.168;9.866;2022-08-19T12:09:50;100280.41;;;25.59;52.87
13934;BME280;7039;52.168;9.866;2022-08-19T12:12:16;100280.78;;;25.94;51.04
13934;BME280;7039;52.168;9.866;2022-08-19T12:14:43;100285.72;;;25.82;52.23
13934;BME280;7039;52.168;9.866;2022-08-19T12:17:09;100286.41;;;25.99;49.40
13934;BME280;7039;52.168;9.866;2022-08-19T12:19:37;100282.09;;;25.98;49.71
13934;BME280;7039;52.168;9.866;2022-08-19T12:22:04;100287.56;;;26.35;49.68
13934;BME280;7039;52.168;9.866;2022-08-19T12:24:34;100281.72;;;25.78;48.25
13934;BME280;7039;52.168;9.866;2022-08-19T12:27:00;100275.06;;;25.59;48.41
13934;BME280;7039;52.168;9.866;2022-08-19T12:29:28;100280.44;;;25.74;47.66
13934;BME280;7039;52.168;9.866;2022-08-19T12:31:55;100273.56;;;25.80;47.36
13934;BME280;7039;52.168;9.866;2022-08-19T12:34:25;100272.03;;;26.15;48.02
13934;BME280;7039;52.168;9.866;2022-08-19T12:36:55;100286.53;;;26.36;47.39
13934;BME280;7039;52.168;9.866;2022-08-19T12:39:21;100280.53;;;26.19;47.89
13934;BME280;7039;52.168;9.866;2022-08-19T12:41:49;100269.75;;;26.27;47.70
13934;BME280;7039;52.168;9.866;2022-08-19T12:44:16;100277.59;;;26.29;47.98
13934;BME280;7039;52.168;9.866;2022-08-19T12:46:43;100276.03;;;26.64;46.89
13934;BME280;7039;52.168;9.866;2022-08-19T12:49:09;100285.41;;;26.90;47.76
13934;BME280;7039;52.168;9.866;2022-08-19T12:51:36;100284.22;;;26.77;47.60
13934;BME280;7039;52.168;9.866;2022-08-19T12:54:03;100269.28;;;26.68;47.70
13934;BME280;7039;52.168;9.866;2022-08-19T12:56:30;100272.44;;;26.42;47.29
13934;BME280;7039;52.168;9.866;2022-08-19T12:59:02;100267.44;;;26.54;46.76
13934;BME280;7039;52.168;9.866;2022-08-19T13:01:29;100264.00;;;26.90;47.44